Time;durP1;ratioP1;P1;durP2;ratioP2;P2;SDS_P1;SDS_P2;PMS_P1;PMS_P2;Temp;Humidity;BMP_temperature;BMP_pressure;BME280_temperature;BME280_humidity;BME280_pressure;Samples;Min_cycle;Max_cycle;Signal;HPM_P1;HPM_P2
2023/07/29 00:00:26;;;;;;;;;;;;;;;21.82;66.72;100589.00;4099853;29;19923;-57
2023/07/29 00:02:30;;;;;;;;;;;;;;;21.82;66.46;100588.16;4099261;29;20021;-57
2023/07/29 00:04:32;;;;;;;;;;;;;;;21.81;66.63;100581.94;4099446;29;20309;-57
2023/07/29 00:06:34;;;;;;;;;;;;;;;21.81;66.60;100576.59;4099997;29;19922;-57
2023/07/29 00:08:36;;;;;;;;;;;;;;;21.80;66.57;100574.91;4100205;29;20013;-57
2023/07/29 00:10:37;;;;;;;;;;;;;;;21.79;66.62;100570.53;4099742;29;19958;-56
2023/07/29 00:12:39;;;;;;;;;;;;;;;21.71;66.85;100564.97;4098321;28;19933;-57
2023/07/29 00:14:46;;;;;;;;;;;;;;;21.78;66.89;100571.50;4083452;29;20263;-57
2023/07/29 00:16:47;;;;;;;;;;;;;;;21.78;66.82;100565.31;4099917;29;20140;-57
2023/07/29 00:18:49;;;;;;;;;;;;;;;21.78;66.83;100565.31;4099573;29;20350;-56
2023/07/29 00:20:51;;;;;;;;;;;;;;;21.76;66.70;100553.88;4099751;29;20455;-57
2023/07/29 00:22:54;;;;;;;;;;;;;;;21.74;66.86;100551.34;4098770;28;19930;-56
2023/07/29 00:24:57;;;;;;;;;;;;;;;21.75;66.82;100544.13;4099565;28;20020;-57
2023/07/29 00:26:58;;;;;;;;;;;;;;;21.74;66.98;100548.66;4099419;29;19952;-57
2023/07/29 00:29:00;;;;;;;;;;;;;;;21.75;66.74;100552.16;4099847;29;19928;-57
2023/07/29 00:31:02;;;;;;;;;;;;;;;21.74;66.71;100545.97;4099841;29;19922;-57
2023/07/29 00:33:03;;;;;;;;;;;;;;;21.74;66.33;100540.63;4098569;29;19922;-57
2023/07/29 00:35:05;;;;;;;;;;;;;;;21.74;66.85;100532.59;4099733;29;19926;-57
2023/07/29 00:37:07;;;;;;;;;;;;;;;21.74;66.81;100537.09;4099574;29;19953;-58
2023/07/29 00:39:09;;;;;;;;;;;;;;;21.74;66.65;100535.28;4099772;29;20033;-57
2023/07/29 00:41:13;;;;;;;;;;;;;;;21.72;66.73;100542.56;4099356;29;20000;-58
2023/07/29 00:43:14;;;;;;;;;;;;;;;21.72;66.73;100547.94;4099256;29;19926;-57
2023/07/29 00:45:16;;;;;;;;;;;;;;;21.70;66.59;100548.06;4099729;29;19928;-57
2023/07/29 00:47:18;;;;;;;;;;;;;;;21.70;66.64;100557.91;4099090;29;20013;-57
2023/07/29 00:49:20;;;;;;;;;;;;;;;21.70;66.77;100552.56;4099552;29;20436;-58
2023/07/29 00:51:22;;;;;;;;;;;;;;;21.70;66.66;100557.91;4098978;29;20364;-57
2023/07/29 00:53:23;;;;;;;;;;;;;;;21.68;66.79;100558.06;4099606;28;20322;-59
2023/07/29 00:55:25;;;;;;;;;;;;;;;21.69;66.65;100553.56;4099538;29;20024;-56
2023/07/29 00:57:28;;;;;;;;;;;;;;;21.68;66.43;100555.38;4099577;28;19923;-57
2023/07/29 00:59:31;;;;;;;;;;;;;;;21.67;66.18;100556.34;4099321;29;19973;-56
2023/07/29 01:01:33;;;;;;;;;;;;;;;21.65;66.68;100561.00;4098678;29;19930;-58
2023/07/29 01:03:35;;;;;;;;;;;;;;;21.65;66.41;100554.78;4099416;29;19991;-57
2023/07/29 01:05:44;;;;;;;;;;;;;;;21.63;66.57;100557.59;4099302;29;19978;-58
2023/07/29 01:07:49;;;;;;;;;;;;;;;21.63;66.67;100564.75;4099549;29;19929;-57
2023/07/29 01:10:05;;;;;;;;;;;;;;;21.62;66.58;100560.41;4099423;29;19922;-58
2023/07/29 01:12:07;;;;;;;;;;;;;;;21.62;66.42;100566.59;4081497;29;20657;-59
2023/07/29 01:14:19;;;;;;;;;;;;;;;21.62;66.51;100573.78;4099336;29;19922;-58
2023/07/29 01:16:23;;;;;;;;;;;;;;;21.60;66.43;100571.22;4098900;29;20371;-59
2023/07/29 01:18:31;;;;;;;;;;;;;;;21.58;66.62;100553.59;4099454;29;20033;-58
2023/07/29 01:20:33;;;;;;;;;;;;;;;21.58;66.53;100533.06;4099345;29;20028;-58
2023/07/29 01:22:36;;;;;;;;;;;;;;;21.57;66.03;100533.19;4098802;28;20002;-57
2023/07/29 01:24:38;;;;;;;;;;;;;;;21.53;66.12;100544.13;4102305;28;19930;-58
2023/07/29 01:26:40;;;;;;;;;;;;;;;21.54;66.32;100555.66;4102148;29;20009;-58
2023/07/29 01:28:41;;;;;;;;;;;;;;;21.53;66.38;100549.47;4102212;29;20010;-58
2023/07/29 01:30:44;;;;;;;;;;;;;;;21.52;66.25;100553.13;4101974;29;20006;-58
2023/07/29 01:32:54;;;;;;;;;;;;;;;21.52;66.13;100549.63;4101426;29;20013;-57
2023/07/29 01:35:18;;;;;;;;;;;;;;;21.51;66.28;100556.78;4102221;29;20271;-56
2023/07/29 01:37:25;;;;;;;;;;;;;;;21.52;65.80;100560.31;4102077;29;19929;-58
2023/07/29 01:39:28;;;;;;;;;;;;;;;21.49;66.05;100548.03;4101962;29;19922;-58
2023/07/29 01:41:31;;;;;;;;;;;;;;;21.47;66.24;100536.63;4101433;29;20305;-58
2023/07/29 01:43:33;;;;;;;;;;;;;;;21.48;66.13;100548.16;4101863;29;20013;-58
2023/07/29 01:45:37;;;;;;;;;;;;;;;21.49;65.98;100542.66;4101384;29;19930;-58
2023/07/29 01:47:41;;;;;;;;;;;;;;;21.47;66.10;100539.28;4101904;29;19923;-58
2023/07/29 01:49:42;;;;;;;;;;;;;;;21.47;65.97;100544.66;4101915;29;20298;-58
2023/07/29 01:51:44;;;;;;;;;;;;;;;21.48;66.01;100553.50;4101288;29;20412;-58
2023/07/29 01:53:45;;;;;;;;;;;;;;;21.46;65.91;100548.28;4101624;29;19922;-58
2023/07/29 01:55:47;;;;;;;;;;;;;;;21.44;65.89;100544.06;4101809;29;20009;-58
2023/07/29 01:57:49;;;;;;;;;;;;;;;21.43;65.80;100543.19;4101647;29;19922;-58
2023/07/29 01:59:50;;;;;;;;;;;;;;;21.43;65.89;100543.19;4101493;29;20394;-58
2023/07/29 02:01:52;;;;;;;;;;;;;;;21.43;65.96;100543.19;4101181;29;19922;-59
2023/07/29 02:03:55;;;;;;;;;;;;;;;21.42;65.92;100544.16;4101641;29;19926;-59
2023/07/29 02:05:57;;;;;;;;;;;;;;;21.41;65.90;100549.66;4101525;29;20361;-58
2023/07/29 02:07:59;;;;;;;;;;;;;;;21.41;65.63;100557.69;4101680;29;20287;-58
2023/07/29 02:10:00;;;;;;;;;;;;;;;21.39;65.64;100580.06;4101707;29;19983;-58
2023/07/29 02:12:02;;;;;;;;;;;;;;;21.39;65.58;100581.91;4100060;29;19954;-59
2023/07/29 02:14:04;;;;;;;;;;;;;;;21.38;65.67;100581.03;4101337;29;19926;-58
2023/07/29 02:16:05;;;;;;;;;;;;;;;21.37;65.53;100568.66;4101255;28;19922;-57
2023/07/29 02:18:07;;;;;;;;;;;;;;;21.38;65.57;100554.28;4101542;29;20024;-58
2023/07/29 02:20:10;;;;;;;;;;;;;;;21.37;65.57;100543.72;4101433;29;19977;-58
2023/07/29 02:22:16;;;;;;;;;;;;;;;21.36;65.80;100548.22;4100689;29;19945;-58
2023/07/29 02:24:17;;;;;;;;;;;;;;;21.36;65.47;100558.06;4101114;28;20390;-58
2023/07/29 02:26:19;;;;;;;;;;;;;;;21.35;65.75;100542.97;4101221;29;20386;-58
2023/07/29 02:28:20;;;;;;;;;;;;;;;21.34;65.64;100533.28;4101293;29;19929;-55
2023/07/29 02:30:22;;;;;;;;;;;;;;;21.34;65.62;100533.28;4101047;29;19923;-58
2023/07/29 02:32:24;;;;;;;;;;;;;;;21.33;65.70;100540.44;4100570;29;19926;-59
2023/07/29 02:34:25;;;;;;;;;;;;;;;21.33;65.70;100542.28;4100486;28;20290;-58
2023/07/29 02:36:27;;;;;;;;;;;;;;;21.33;65.48;100551.16;4101046;29;19922;-58
2023/07/29 02:38:29;;;;;;;;;;;;;;;21.33;65.45;100556.50;4101292;28;20341;-56
2023/07/29 02:40:30;;;;;;;;;;;;;;;21.33;65.30;100561.84;4101279;28;20005;-58
2023/07/29 02:42:32;;;;;;;;;;;;;;;21.32;65.38;100556.63;4100695;29;19930;-58
2023/07/29 02:44:33;;;;;;;;;;;;;;;21.32;65.51;100556.63;4100641;29;20302;-59
2023/07/29 02:46:35;;;;;;;;;;;;;;;21.32;65.15;100559.31;4101103;29;19981;-61
2023/07/29 02:48:37;;;;;;;;;;;;;;;21.29;65.43;100568.44;4101140;29;20018;-59
2023/07/29 02:50:38;;;;;;;;;;;;;;;21.29;65.51;100562.22;4101103;29;19922;-58
2023/07/29 02:52:40;;;;;;;;;;;;;;;21.29;65.46;100559.56;4100208;29;19922;-58
2023/07/29 02:54:42;;;;;;;;;;;;;;;21.29;65.41;100560.41;4100960;29;19926;-58
2023/07/29 02:56:43;;;;;;;;;;;;;;;21.28;65.27;100564.06;4100864;29;19929;-58
2023/07/29 02:58:45;;;;;;;;;;;;;;;21.28;65.43;100568.56;4100435;29;19933;-58
2023/07/29 03:00:51;;;;;;;;;;;;;;;21.28;65.11;100564.06;4100819;29;20397;-59
2023/07/29 03:02:53;;;;;;;;;;;;;;;21.28;65.02;100571.25;4100090;29;20354;-58
2023/07/29 03:04:55;;;;;;;;;;;;;;;21.26;65.23;100566.00;4100609;29;19922;-58
2023/07/29 03:06:56;;;;;;;;;;;;;;;21.25;65.30;100569.66;4100582;29;20005;-58
2023/07/29 03:08:58;;;;;;;;;;;;;;;21.23;65.33;100577.81;4100806;29;20070;-58
2023/07/29 03:11:06;;;;;;;;;;;;;;;21.23;65.22;100580.50;4100541;29;19969;-58
2023/07/29 03:13:08;;;;;;;;;;;;;;;21.22;65.25;100588.66;4099536;29;19965;-58
2023/07/29 03:15:14;;;;;;;;;;;;;;;21.22;64.95;100591.31;4100680;29;19948;-58
2023/07/29 03:17:16;;;;;;;;;;;;;;;21.21;65.07;100585.09;4100618;29;19952;-58
2023/07/29 03:19:17;;;;;;;;;;;;;;;21.20;64.98;100588.78;4100693;28;19946;-59
2023/07/29 03:21:19;;;;;;;;;;;;;;;21.18;64.54;100585.38;4100336;28;20386;-58
2023/07/29 03:23:25;;;;;;;;;;;;;;;21.16;65.09;100584.66;4099754;29;19923;-58
2023/07/29 03:25:27;;;;;;;;;;;;;;;21.17;64.85;100588.19;4100420;28;19966;-58
2023/07/29 03:27:28;;;;;;;;;;;;;;;21.17;65.24;100591.69;4100125;29;19922;-58
2023/07/29 03:29:30;;;;;;;;;;;;;;;21.16;64.77;100592.66;4100309;29;19923;-58
2023/07/29 03:31:31;;;;;;;;;;;;;;;21.17;64.92;100602.41;4100316;29;20009;-58
2023/07/29 03:33:33;;;;;;;;;;;;;;;21.17;64.67;100599.72;4099431;29;20009;-58
2023/07/29 03:35:39;;;;;;;;;;;;;;;21.17;65.09;100598.88;4098889;29;19922;-58
2023/07/29 03:37:41;;;;;;;;;;;;;;;21.15;65.02;100601.66;4100346;29;20445;-56
2023/07/29 03:39:43;;;;;;;;;;;;;;;21.15;64.83;100604.34;4100184;29;20453;-58
2023/07/29 03:41:44;;;;;;;;;;;;;;;21.15;64.80;100606.19;4099642;29;19926;-59
2023/07/29 03:43:46;;;;;;;;;;;;;;;21.15;64.91;100609.69;4100141;29;20294;-58
2023/07/29 03:45:47;;;;;;;;;;;;;;;21.14;64.87;100607.16;4099788;28;19929;-58
2023/07/29 03:47:49;;;;;;;;;;;;;;;21.11;64.57;100604.75;4099623;29;20016;-58
2023/07/29 03:49:51;;;;;;;;;;;;;;;21.11;64.93;100607.41;4100029;29;19922;-57
2023/07/29 03:51:52;;;;;;;;;;;;;;;21.09;64.91;100602.16;4099694;29;19980;-56
2023/07/29 03:53:54;;;;;;;;;;;;;;;21.10;64.93;100597.69;4098681;29;20468;-58
2023/07/29 03:55:56;;;;;;;;;;;;;;;21.08;64.65;100603.13;4099509;29;20017;-58
2023/07/29 03:57:58;;;;;;;;;;;;;;;21.09;64.68;100602.16;4100059;29;19922;-58
2023/07/29 04:00:00;;;;;;;;;;;;;;;21.08;64.97;100607.66;4100032;29;20298;-58
2023/07/29 04:02:01;;;;;;;;;;;;;;;21.07;64.77;100601.47;4099552;29;19922;-58
2023/07/29 04:04:03;;;;;;;;;;;;;;;21.05;64.74;100596.22;4099973;29;19923;-58
2023/07/29 04:06:04;;;;;;;;;;;;;;;21.08;64.92;100595.13;4099834;29;19993;-58
2023/07/29 04:08:06;;;;;;;;;;;;;;;21.06;64.80;100597.09;4099674;29;20016;-59
2023/07/29 04:10:07;;;;;;;;;;;;;;;21.05;64.85;100598.91;4099511;29;19958;-58
2023/07/29 04:12:09;;;;;;;;;;;;;;;21.05;64.61;100601.56;4099263;29;19922;-58
2023/07/29 04:14:11;;;;;;;;;;;;;;;21.04;64.86;100607.06;4099846;29;19980;-57
2023/07/29 04:16:13;;;;;;;;;;;;;;;21.03;64.77;100608.03;4099943;29;19932;-59
2023/07/29 04:18:14;;;;;;;;;;;;;;;21.03;64.64;100605.34;4099877;29;19969;-58
2023/07/29 04:20:16;;;;;;;;;;;;;;;21.01;64.76;100608.16;4099981;29;19926;-57
2023/07/29 04:22:17;;;;;;;;;;;;;;;21.02;64.57;100603.66;4099071;29;19976;-57
2023/07/29 04:24:20;;;;;;;;;;;;;;;21.01;64.52;100608.16;4099750;28;19922;-56
2023/07/29 04:26:21;;;;;;;;;;;;;;;21.01;64.82;100605.47;4099450;29;19923;-58
2023/07/29 04:28:23;;;;;;;;;;;;;;;21.01;64.60;100604.63;4098650;29;20005;-58
2023/07/29 04:30:25;;;;;;;;;;;;;;;21.02;64.66;100614.34;4099961;29;20024;-58
2023/07/29 04:32:26;;;;;;;;;;;;;;;21.01;64.68;100623.34;4081911;29;19946;-57
2023/07/29 04:34:28;;;;;;;;;;;;;;;21.01;64.74;100634.91;4099495;29;20432;-57
2023/07/29 04:36:29;;;;;;;;;;;;;;;21.01;64.65;100631.34;4099610;29;19922;-58
2023/07/29 04:38:34;;;;;;;;;;;;;;;21.02;64.77;100633.94;4098537;29;20009;-58
2023/07/29 04:40:36;;;;;;;;;;;;;;;21.01;64.70;100642.03;4099357;29;19981;-58
2023/07/29 04:42:37;;;;;;;;;;;;;;;21.00;64.43;100633.19;4097683;29;20025;-58
2023/07/29 04:44:41;;;;;;;;;;;;;;;20.99;64.71;100628.81;4099489;29;19934;-58
2023/07/29 04:46:43;;;;;;;;;;;;;;;20.99;64.72;100636.00;4099517;29;19930;-58
2023/07/29 04:48:44;;;;;;;;;;;;;;;20.96;64.47;100626.41;4099683;29;19934;-57
2023/07/29 04:50:46;;;;;;;;;;;;;;;20.96;64.59;100625.53;4099648;29;20349;-57
2023/07/29 04:52:47;;;;;;;;;;;;;;;20.94;64.68;100631.00;4098740;29;19922;-58
2023/07/29 04:54:49;;;;;;;;;;;;;;;20.96;64.61;100625.53;4099032;29;19977;-58
2023/07/29 04:56:51;;;;;;;;;;;;;;;20.97;64.68;100625.41;4099440;29;19926;-57
2023/07/29 04:58:53;;;;;;;;;;;;;;;20.94;64.44;100623.00;4101793;28;19926;-58
2023/07/29 05:00:58;;;;;;;;;;;;;;;20.95;64.53;100623.84;4102839;29;19985;-58
2023/07/29 05:03:01;;;;;;;;;;;;;;;20.93;64.56;100615.94;4101959;28;19946;-58
2023/07/29 05:05:02;;;;;;;;;;;;;;;20.93;64.30;100617.78;4102765;29;20274;-58
2023/07/29 05:07:04;;;;;;;;;;;;;;;20.94;64.42;100624.84;4102420;29;19945;-58
2023/07/29 05:09:15;;;;;;;;;;;;;;;20.93;64.56;100623.97;4102210;29;20382;-58
2023/07/29 05:11:17;;;;;;;;;;;;;;;20.93;64.41;100621.28;4102559;29;19929;-55
2023/07/29 05:13:19;;;;;;;;;;;;;;;20.94;64.53;100627.50;4101805;29;20021;-55
2023/07/29 05:15:20;;;;;;;;;;;;;;;20.93;64.41;100631.16;4102516;29;19922;-58
2023/07/29 05:17:22;;;;;;;;;;;;;;;20.94;64.44;100638.19;4102494;28;20017;-54
2023/07/29 05:19:24;;;;;;;;;;;;;;;20.93;64.41;100633.81;4102335;29;19985;-58
2023/07/29 05:21:25;;;;;;;;;;;;;;;20.91;64.33;100633.91;4102315;29;19969;-57
2023/07/29 05:23:27;;;;;;;;;;;;;;;20.90;64.39;100630.41;4101344;29;19922;-58
2023/07/29 05:25:28;;;;;;;;;;;;;;;20.92;64.32;100627.59;4102197;28;19922;-58
2023/07/29 05:27:30;;;;;;;;;;;;;;;20.91;64.30;100633.91;4102312;29;19923;-57
2023/07/29 05:29:32;;;;;;;;;;;;;;;20.88;64.22;100632.34;4102651;29;20338;-57
2023/07/29 05:31:33;;;;;;;;;;;;;;;20.88;64.21;100634.19;4102274;29;19926;-56
2023/07/29 05:33:36;;;;;;;;;;;;;;;20.87;64.14;100638.66;4101655;29;19977;-57
2023/07/29 05:35:37;;;;;;;;;;;;;;;20.87;64.03;100638.66;4102184;29;19922;-58
2023/07/29 05:37:42;;;;;;;;;;;;;;;20.85;64.46;100627.28;4101926;29;19923;-58
2023/07/29 05:39:43;;;;;;;;;;;;;;;20.84;64.12;100638.94;4102213;29;19922;-57
2023/07/29 05:41:46;;;;;;;;;;;;;;;20.84;64.25;100635.38;4102190;28;19926;-57
2023/07/29 05:43:47;;;;;;;;;;;;;;;20.86;64.09;100634.31;4101434;29;20394;-57
2023/07/29 05:45:49;;;;;;;;;;;;;;;20.85;63.98;100637.09;4085114;29;19923;-58
2023/07/29 05:47:51;;;;;;;;;;;;;;;20.82;64.39;100634.69;4101889;28;19973;-58
2023/07/29 05:49:52;;;;;;;;;;;;;;;20.83;64.31;100634.56;4102150;29;19941;-57
2023/07/29 05:51:54;;;;;;;;;;;;;;;20.83;64.26;100631.03;4101430;29;19928;-57
2023/07/29 05:53:55;;;;;;;;;;;;;;;20.82;64.17;100630.19;4101426;29;20550;-58
2023/07/29 05:55:57;;;;;;;;;;;;;;;20.83;64.17;100634.56;4101897;29;19929;-57
2023/07/29 05:57:58;;;;;;;;;;;;;;;20.81;64.15;100641.00;4101780;29;20415;-57
2023/07/29 06:00:00;;;;;;;;;;;;;;;20.75;63.93;100631.63;4101883;29;19970;-58
2023/07/29 06:02:02;;;;;;;;;;;;;;;20.81;64.05;100638.31;4100606;29;20404;-58
2023/07/29 06:04:04;;;;;;;;;;;;;;;20.82;64.13;100640.88;4101105;29;20010;-57
2023/07/29 06:06:05;;;;;;;;;;;;;;;20.81;64.01;100644.50;4101409;29;19926;-56
2023/07/29 06:08:08;;;;;;;;;;;;;;;20.79;64.20;100642.94;4101513;29;19923;-58
2023/07/29 06:10:13;;;;;;;;;;;;;;;20.78;64.04;100638.56;4100701;28;19922;-57
2023/07/29 06:12:15;;;;;;;;;;;;;;;20.80;63.96;100631.28;4101409;29;20334;-58
2023/07/29 06:14:16;;;;;;;;;;;;;;;20.80;64.08;100626.75;4101042;28;19922;-57
2023/07/29 06:16:18;;;;;;;;;;;;;;;20.80;64.05;100632.13;4101656;29;19922;-57
2023/07/29 06:18:20;;;;;;;;;;;;;;;20.81;63.59;100635.66;4101581;28;20287;-57
2023/07/29 06:20:21;;;;;;;;;;;;;;;20.80;63.98;100639.28;4101539;29;19953;-58
2023/07/29 06:22:23;;;;;;;;;;;;;;;20.80;64.01;100652.66;4100521;29;19929;-58
2023/07/29 06:24:24;;;;;;;;;;;;;;;20.80;63.60;100650.00;4101181;28;20366;-58
2023/07/29 06:26:26;;;;;;;;;;;;;;;20.79;63.89;100651.81;4101564;29;19962;-58
2023/07/29 06:28:27;;;;;;;;;;;;;;;20.81;63.87;100652.53;4101307;29;19953;-56
2023/07/29 06:30:29;;;;;;;;;;;;;;;20.81;64.00;100655.19;4100160;29;19923;-57
2023/07/29 06:32:31;;;;;;;;;;;;;;;20.80;63.80;100663.34;4100659;29;19933;-57
2023/07/29 06:34:33;;;;;;;;;;;;;;;20.79;63.92;100662.50;4101065;29;19926;-56
2023/07/29 06:36:34;;;;;;;;;;;;;;;20.80;63.83;100666.03;4100789;29;20009;-56
2023/07/29 06:38:38;;;;;;;;;;;;;;;20.79;63.84;100667.00;4101315;29;20345;-53
2023/07/29 06:40:39;;;;;;;;;;;;;;;20.81;63.84;100665.91;4101068;29;20298;-57
2023/07/29 06:42:41;;;;;;;;;;;;;;;20.81;63.86;100665.91;4083505;29;20488;-57
2023/07/29 06:44:45;;;;;;;;;;;;;;;20.81;63.49;100665.91;4101217;29;19950;-56
2023/07/29 06:46:47;;;;;;;;;;;;;;;20.81;63.78;100671.25;4101077;29;20274;-58
2023/07/29 06:48:48;;;;;;;;;;;;;;;20.82;63.54;100667.59;4101013;29;19922;-57
2023/07/29 06:50:50;;;;;;;;;;;;;;;20.84;63.68;100671.00;4100871;29;20024;-56
2023/07/29 06:52:52;;;;;;;;;;;;;;;20.83;63.49;100671.13;4100602;29;19966;-57
2023/07/29 06:54:53;;;;;;;;;;;;;;;20.84;63.25;100678.16;4100935;29;20393;-57
2023/07/29 06:56:55;;;;;;;;;;;;;;;20.82;63.66;100675.63;4100918;29;19922;-57
2023/07/29 06:58:56;;;;;;;;;;;;;;;20.81;63.60;100668.56;4100764;29;19926;-57
2023/07/29 07:00:58;;;;;;;;;;;;;;;20.83;63.40;100673.81;4100782;28;19922;-57
2023/07/29 07:02:59;;;;;;;;;;;;;;;20.80;63.49;100674.03;4100118;29;19922;-56
2023/07/29 07:05:01;;;;;;;;;;;;;;;20.80;63.53;100674.03;4100521;29;20029;-55
2023/07/29 07:07:03;;;;;;;;;;;;;;;20.80;63.33;100685.56;4100870;29;20397;-57
2023/07/29 07:09:04;;;;;;;;;;;;;;;20.81;63.46;100676.59;4100646;29;20312;-56
2023/07/29 07:11:06;;;;;;;;;;;;;;;20.86;63.42;100687.78;4100857;29;20473;-57
2023/07/29 07:13:07;;;;;;;;;;;;;;;20.86;62.99;100694.94;4099979;29;19930;-57
2023/07/29 07:15:09;;;;;;;;;;;;;;;20.86;63.38;100697.59;4100438;29;20321;-56
2023/07/29 07:17:10;;;;;;;;;;;;;;;20.86;63.41;100701.16;4100722;29;19922;-56
2023/07/29 07:19:14;;;;;;;;;;;;;;;20.85;63.04;100707.47;4100102;29;19927;-58
2023/07/29 07:21:15;;;;;;;;;;;;;;;20.85;63.19;100706.59;4100242;28;20000;-58
2023/07/29 07:23:17;;;;;;;;;;;;;;;20.83;62.99;100709.41;4099938;29;19985;-57
2023/07/29 07:25:19;;;;;;;;;;;;;;;20.82;63.44;100715.72;4100477;28;19926;-57
2023/07/29 07:27:21;;;;;;;;;;;;;;;20.81;63.40;100711.34;4100472;29;20362;-57
2023/07/29 07:29:22;;;;;;;;;;;;;;;20.77;63.40;100715.22;4100531;29;19946;-57
2023/07/29 07:31:24;;;;;;;;;;;;;;;20.77;63.38;100714.38;4100262;29;19990;-56
2023/07/29 07:33:25;;;;;;;;;;;;;;;20.74;63.37;100710.13;4099455;29;20021;-56
2023/07/29 07:35:27;;;;;;;;;;;;;;;20.76;62.99;100718.03;4100414;29;19937;-57
2023/07/29 07:37:29;;;;;;;;;;;;;;;20.73;63.44;100711.94;4100425;29;19922;-54
2023/07/29 07:39:31;;;;;;;;;;;;;;;20.75;63.42;100717.16;4100279;29;20350;-56
2023/07/29 07:41:32;;;;;;;;;;;;;;;20.76;63.10;100718.03;4100371;29;19923;-58
2023/07/29 07:43:34;;;;;;;;;;;;;;;20.71;63.26;100708.50;4099541;29;19969;-57
2023/07/29 07:45:36;;;;;;;;;;;;;;;20.73;63.32;100717.28;4100169;29;19922;-58
2023/07/29 07:47:37;;;;;;;;;;;;;;;20.74;63.41;100712.78;4082916;29;19955;-57
2023/07/29 07:49:39;;;;;;;;;;;;;;;20.74;63.12;100702.09;4099839;29;20009;-55
2023/07/29 07:51:40;;;;;;;;;;;;;;;20.77;63.13;100709.03;4100272;29;20298;-53
2023/07/29 07:53:42;;;;;;;;;;;;;;;20.77;63.08;100711.69;4099343;29;19958;-57
2023/07/29 07:55:43;;;;;;;;;;;;;;;20.80;62.89;100706.94;4100078;29;19950;-56
2023/07/29 07:57:46;;;;;;;;;;;;;;;20.79;63.16;100710.63;4100222;29;19926;-57
2023/07/29 07:59:47;;;;;;;;;;;;;;;20.81;62.99;100710.50;4099055;29;20301;-57
2023/07/29 08:01:49;;;;;;;;;;;;;;;20.82;62.75;100709.53;4099962;29;19922;-57
2023/07/29 08:03:51;;;;;;;;;;;;;;;20.81;63.12;100705.16;4098947;29;19934;-57
2023/07/29 08:05:52;;;;;;;;;;;;;;;20.82;62.99;100712.19;4099806;29;20297;-57
2023/07/29 08:07:54;;;;;;;;;;;;;;;20.82;62.96;100702.34;4099871;29;19965;-55
2023/07/29 08:09:55;;;;;;;;;;;;;;;20.83;62.66;100706.72;4100014;29;19922;-57
2023/07/29 08:11:57;;;;;;;;;;;;;;;20.83;62.87;100709.41;4099869;29;19922;-57
2023/07/29 08:13:59;;;;;;;;;;;;;;;20.85;62.92;100704.78;4099082;29;19953;-54
2023/07/29 08:16:00;;;;;;;;;;;;;;;20.85;62.66;100711.94;4099975;29;19923;-54
2023/07/29 08:18:02;;;;;;;;;;;;;;;20.88;62.70;100717.91;4099450;29;20305;-54
2023/07/29 08:20:04;;;;;;;;;;;;;;;20.90;62.67;100713.28;4099729;28;19923;-56
2023/07/29 08:22:05;;;;;;;;;;;;;;;20.90;62.91;100713.28;4099694;29;19930;-56
2023/07/29 08:24:07;;;;;;;;;;;;;;;20.91;62.81;100711.44;4099112;28;19997;-55
2023/07/29 08:26:09;;;;;;;;;;;;;;;20.92;62.63;100720.34;4099685;29;20378;-56
2023/07/29 08:28:11;;;;;;;;;;;;;;;20.89;62.68;100722.28;4099483;29;19929;-57
2023/07/29 08:30:12;;;;;;;;;;;;;;;20.88;62.81;100712.56;4099520;29;19926;-56
2023/07/29 08:32:14;;;;;;;;;;;;;;;20.90;62.96;100715.13;4100108;28;19953;-57
2023/07/29 08:34:15;;;;;;;;;;;;;;;20.88;63.00;100711.72;4103955;28;19926;-57
2023/07/29 08:36:17;;;;;;;;;;;;;;;20.89;62.88;100714.25;4103758;29;20025;-58
2023/07/29 08:38:19;;;;;;;;;;;;;;;20.90;62.71;100709.78;4105156;29;20310;-56
2023/07/29 08:40:25;;;;;;;;;;;;;;;20.89;62.79;100716.94;4087863;29;20333;-55
2023/07/29 08:42:31;;;;;;;;;;;;;;;20.90;62.98;100715.13;4104971;28;19922;-57
2023/07/29 08:44:39;;;;;;;;;;;;;;;20.90;62.90;100707.94;4104417;29;20022;-57
2023/07/29 08:46:41;;;;;;;;;;;;;;;20.88;62.68;100709.03;4104539;29;19929;-51
2023/07/29 08:48:43;;;;;;;;;;;;;;;20.87;62.68;100705.50;4104771;29;19929;-56
2023/07/29 08:50:45;;;;;;;;;;;;;;;20.92;62.84;100705.13;4104875;28;19970;-55
2023/07/29 08:52:47;;;;;;;;;;;;;;;20.95;62.74;100699.56;4104730;29;19929;-58
2023/07/29 08:54:49;;;;;;;;;;;;;;;20.95;62.79;100698.69;4104432;28;19949;-54
2023/07/29 08:56:51;;;;;;;;;;;;;;;20.97;62.42;100702.09;4104899;28;19952;-54
2023/07/29 08:58:52;;;;;;;;;;;;;;;20.94;62.93;100702.38;4105060;29;19977;-56
2023/07/29 09:00:54;;;;;;;;;;;;;;;20.96;62.76;100705.75;4104627;28;19936;-56
2023/07/29 09:02:57;;;;;;;;;;;;;;;20.95;62.91;100696.88;4104344;29;20349;-57
2023/07/29 09:04:59;;;;;;;;;;;;;;;20.96;62.81;100697.72;4101946;29;19923;-57
2023/07/29 09:07:01;;;;;;;;;;;;;;;21.00;62.81;100692.00;4103925;29;19923;-58
2023/07/29 09:09:03;;;;;;;;;;;;;;;21.04;62.48;100698.81;4102911;29;19933;-58
2023/07/29 09:11:05;;;;;;;;;;;;;;;21.06;62.42;100696.03;4099164;29;20009;-58
2023/07/29 09:13:07;;;;;;;;;;;;;;;21.08;62.70;100685.19;4103433;28;19922;-59
2023/07/29 09:15:09;;;;;;;;;;;;;;;21.08;62.70;100686.03;4103069;29;19933;-58
2023/07/29 09:17:10;;;;;;;;;;;;;;;21.13;62.83;100685.66;4099808;29;19957;-58
2023/07/29 09:19:12;;;;;;;;;;;;;;;21.08;62.81;100677.19;4103601;29;20393;-57
2023/07/29 09:21:15;;;;;;;;;;;;;;;21.13;62.74;100685.66;4103951;29;19933;-59
2023/07/29 09:23:16;;;;;;;;;;;;;;;21.14;62.39;100684.69;4103114;29;19950;-58
2023/07/29 09:25:22;;;;;;;;;;;;;;;21.06;62.86;100686.16;4102917;28;19970;-59
2023/07/29 09:27:27;;;;;;;;;;;;;;;21.09;62.92;100678.88;4103370;29;19952;-60
2023/07/29 09:29:29;;;;;;;;;;;;;;;21.14;63.07;100674.00;4103018;28;19965;-59
2023/07/29 09:31:30;;;;;;;;;;;;;;;21.12;63.14;100673.25;4103684;28;20022;-59
2023/07/29 09:33:39;;;;;;;;;;;;;;;21.06;63.51;100675.47;4102827;29;19922;-58
2023/07/29 09:35:41;;;;;;;;;;;;;;;21.12;63.28;100687.50;4103518;29;19977;-59
2023/07/29 09:37:43;;;;;;;;;;;;;;;21.12;62.86;100687.50;4103813;28;19928;-60
2023/07/29 09:39:45;;;;;;;;;;;;;;;;;;4104003;29;19941;-60
2023/07/29 09:41:48;;;;;;;;;;;;;;;20.98;62.91;100682.41;4103606;29;19933;-59
2023/07/29 09:43:55;;;;;;;;;;;;;;;20.98;62.56;100683.25;4101952;28;19945;-60
2023/07/29 09:46:01;;;;;;;;;;;;;;;21.02;62.75;100678.50;4100961;29;19929;-59
2023/07/29 09:48:04;;;;;;;;;;;;;;;21.11;62.78;100684.97;4101309;29;19950;-61
2023/07/29 09:50:09;;;;;;;;;;;;;;;21.06;63.15;100678.16;4101616;29;19922;-60
2023/07/29 09:52:10;;;;;;;;;;;;;;;20.99;63.43;100682.28;4098888;29;19923;-60
2023/07/29 09:54:13;;;;;;;;;;;;;;;21.09;63.07;100689.56;4101105;29;20032;-60
2023/07/29 09:56:15;;;;;;;;;;;;;;;21.06;63.33;100682.66;4101819;29;19922;-62
2023/07/29 09:58:26;;;;;;;;;;;;;;;21.13;62.58;100677.66;4101529;29;19929;-61
2023/07/29 10:00:28;;;;;;;;;;;;;;;21.12;63.53;100683.97;4101472;29;20002;-65
2023/07/29 10:02:30;;;;;;;;;;;;;;;21.08;63.58;100678.00;4098550;28;20016;-64
2023/07/29 10:04:32;;;;;;;;;;;;;;;21.12;63.64;100675.94;4099885;29;20037;-65
2023/07/29 10:06:34;;;;;;;;;;;;;;;21.13;63.40;100678.50;4100922;29;19922;-65
2023/07/29 10:08:40;;;;;;;;;;;;;;;21.20;62.91;100681.53;4100676;29;19922;-64
2023/07/29 10:10:42;;;;;;;;;;;;;;;21.20;63.08;100678.84;4099889;29;19929;-64
2023/07/29 10:12:44;;;;;;;;;;;;;;;21.16;63.52;100677.41;4098631;29;19934;-64
2023/07/29 10:14:47;;;;;;;;;;;;;;;21.09;64.18;100678.88;4079309;29;20398;-64
2023/07/29 10:16:50;;;;;;;;;;;;;;;21.28;63.96;100678.25;4096120;29;19923;-66
2023/07/29 10:18:53;;;;;;;;;;;;;;;21.38;64.24;100674.66;4099788;29;19929;-64
2023/07/29 10:20:56;;;;;;;;;;;;;;;21.53;63.13;100679.72;4100608;29;19922;-64
2023/07/29 10:22:59;;;;;;;;;;;;;;;21.54;62.89;100674.28;4097826;29;19948;-65
2023/07/29 10:25:03;;;;;;;;;;;;;;;21.55;62.22;100669.75;4099454;28;19922;-65
2023/07/29 10:27:06;;;;;;;;;;;;;;;21.52;62.96;100673.53;4100036;29;19961;-65
2023/07/29 10:29:12;;;;;;;;;;;;;;;21.53;62.91;100679.72;4099466;29;19927;-63